Tropical Cyclones
[Index]
Main Index Home Page Stock Weather Photos Extreme Storms Discussion Storm News and Storm Chasing Reports Tropical Cyclones / Hurricanes / Typhoons Weather Data and Links Wild Fires / Bushfires Weather Observation Techniques Weather Picture Catalogue Tornado Pictures and Reports Stock Video Footage and DVDs for sale
Season 2013-2014 Tropical Cyclone IVANOE Track Map
Season 2013-2014 Summaries (Operational Data): [AU] [SIO] [SPAC] [SH]
<<- Previous TC | 2013-2014 Season | Next TC ->>

click for intensity scale information  Lat/long Grid: Show Hide

 Date Labels: Show Hide

Operational Tropical Cyclone Data : JTWC Advisories

Name: IVANOE
Number: 1422

30 Mar 2014 18:00 UTC to 06 Apr 2014 12:00 UTC

    date/time    lat    long     hPa   cat  kts
2014-03-30 18    7.7    77.4    1010         15          
2014-03-31 00    7.5    77.3    1010         15          
2014-03-31 06    7.4    76.0    1010         15          
2014-03-31 12    7.4    75.7    1010         15          
2014-03-31 18   10.3    73.7    1010         15          
2014-04-01 00   10.3    73.3    1010         15          
2014-04-01 06   10.3    76.5    1010         15          
2014-04-01 12   10.3    76.1    1010         15          
2014-04-01 18   10.3    75.6    1010         15          
2014-04-02 00    7.0    87.1    1010         15          
2014-04-02 06    7.0    87.0    1010         15          
2014-04-02 12   10.0    85.3    1010         15          
2014-04-02 18   10.1    84.9    1010         15          
2014-04-03 00   10.9    83.9    1010         15          
2014-04-03 06   11.7    83.0    1010         15          
2014-04-03 12   12.6    81.8    1006         20          
2014-04-03 18   13.6    80.7    1004         25          
2014-04-04 00   14.5    80.0    1000         30          
2014-04-04 06   15.3    79.7    1000         30          
2014-04-04 12   16.0    79.8     996    1    35          
2014-04-04 18   16.8    80.3     996    1    35          
2014-04-05 00   17.9    81.1     993    1    40          
2014-04-05 06   19.6    82.3     989    1    45          
2014-04-05 12   21.4    83.6     989    1    45          
2014-04-05 18   23.3    84.9     989    1    45          
2014-04-06 00   25.5    86.3     989    1    45          
2014-04-06 06   27.7    87.5     989    1    45          
2014-04-06 12   30.3    88.8     996    1    40          
Winds are 10-min average.

Tropical cyclone tracks developed by Michael Bath using operational warnings and advisories and Google Maps.


[Australian Severe Weather index] [Copyright Notice] [Email Contacts] [Search This Site] [Privacy Policy]
Document: tropical_cyclone_ivanoe.htm Updated: 2 May 2017